Terminal Aerodrome Forecast
Issued by NWS Wilmington, OH

Current Version | Previous Version | Graphics & Text | Print | Product List | Glossary On
Versions: 1 2 3 4 5 6 7 8 9 10 11 12 13
000
FTUS41 KILN 092300
TAFILN
TAF
KILN 092320Z 1000/1024 30009KT P6SM SCT060
     FM100300 34004KT P6SM SKC
      TEMPO 1009/1012 5SM BR
     FM101500 36007KT P6SM FEW060=

USA.gov is the U.S. government's official web portal to all federal, state and local government web resources and services.